createdAt,value
2019-03-10T00:00:39.692Z,9.63
2019-03-10T00:03:08.458Z,9.43
2019-03-10T00:05:37.104Z,8.33
2019-03-10T00:08:07.886Z,11.18
2019-03-10T00:10:36.463Z,10.50
2019-03-10T00:13:05.173Z,9.25
2019-03-10T00:15:33.893Z,8.87
2019-03-10T00:18:02.675Z,6.03
2019-03-10T00:20:31.468Z,9.10
2019-03-10T00:23:00.257Z,7.73
2019-03-10T00:25:29.047Z,5.30
2019-03-10T00:27:57.833Z,5.43
2019-03-10T00:30:26.416Z,7.90
2019-03-10T00:32:55.104Z,6.45
2019-03-10T00:35:23.847Z,4.10
2019-03-10T00:37:52.502Z,5.17
2019-03-10T00:40:57.510Z,3.80
2019-03-10T00:43:29.197Z,6.95
2019-03-10T00:46:21.026Z,5.50
2019-03-10T00:49:08.156Z,5.80
2019-03-10T00:51:56.595Z,5.10
2019-03-10T00:54:25.287Z,6.33
2019-03-10T00:56:55.946Z,4.97
2019-03-10T00:59:25.960Z,4.12
2019-03-10T01:01:54.885Z,2.95
2019-03-10T01:04:23.598Z,4.45
2019-03-10T01:06:52.396Z,4.50
2019-03-10T01:09:23.199Z,4.50
2019-03-10T01:11:53.653Z,4.60
2019-03-10T01:14:22.960Z,6.65
2019-03-10T01:16:56.624Z,3.95
2019-03-10T01:19:27.884Z,4.12
2019-03-10T01:21:57.603Z,4.80
2019-03-10T01:26:57.715Z,4.30
2019-03-10T01:29:27.744Z,5.20
2019-03-10T01:32:02.324Z,3.50
2019-03-10T01:35:11.518Z,3.72
2019-03-10T01:37:40.215Z,5.95
2019-03-10T01:40:09.270Z,8.20
2019-03-10T01:42:37.967Z,6.87
2019-03-10T01:45:09.963Z,7.60
2019-03-10T01:47:41.535Z,5.87
2019-03-10T01:50:18.784Z,4.70
2019-03-10T01:52:47.798Z,7.22
2019-03-10T01:55:21.478Z,9.13
2019-03-10T01:58:04.384Z,7.87
2019-03-10T02:00:28.186Z,6.15
2019-03-10T02:03:02.472Z,6.08
2019-03-10T02:05:31.235Z,5.00
2019-03-10T02:08:03.669Z,2.37
2019-03-10T02:10:38.143Z,4.87
2019-03-10T02:13:13.635Z,5.60
2019-03-10T02:15:42.686Z,7.80
2019-03-10T02:18:31.007Z,7.25
2019-03-10T02:21:00.052Z,6.97
2019-03-10T02:23:53.178Z,4.83
2019-03-10T02:26:01.148Z,7.20
2019-03-10T02:28:29.763Z,5.53
2019-03-10T02:30:58.456Z,3.98
2019-03-10T02:33:27.242Z,6.27
2019-03-10T02:35:55.965Z,4.73
2019-03-10T02:38:24.556Z,6.17
2019-03-10T02:40:53.155Z,5.47
2019-03-10T02:43:21.808Z,6.92
2019-03-10T02:45:50.411Z,11.13
2019-03-10T02:48:19.122Z,11.73
2019-03-10T02:50:47.724Z,12.50
2019-03-10T02:53:16.210Z,13.00
2019-03-10T02:55:44.897Z,8.18
2019-03-10T02:58:13.528Z,9.10
2019-03-10T03:00:42.092Z,8.68
2019-03-10T03:03:10.842Z,8.25
2019-03-10T03:05:39.407Z,8.23
2019-03-10T03:08:07.996Z,8.60
2019-03-10T03:10:36.586Z,6.30
2019-03-10T03:13:05.260Z,8.38
2019-03-10T03:15:33.794Z,10.03
2019-03-10T03:18:02.448Z,9.05
2019-03-10T03:20:31.227Z,8.77
2019-03-10T03:22:59.829Z,8.60
2019-03-10T03:25:28.420Z,8.40
2019-03-10T03:27:57.100Z,10.85
2019-03-10T03:30:25.669Z,8.00
2019-03-10T03:32:54.361Z,6.75
2019-03-10T03:35:44.337Z,10.30
2019-03-10T03:38:12.941Z,10.50
2019-03-10T03:40:56.631Z,8.35
2019-03-10T03:43:25.226Z,8.18
2019-03-10T03:45:53.880Z,6.55
2019-03-10T03:48:22.573Z,6.95
2019-03-10T03:50:51.111Z,5.77
2019-03-10T03:53:19.698Z,5.92
2019-03-10T03:55:48.191Z,6.00
2019-03-10T03:58:16.723Z,7.12
2019-03-10T04:00:46.889Z,7.15
2019-03-10T04:03:15.464Z,4.60
2019-03-10T04:05:44.297Z,10.08
2019-03-10T04:08:12.785Z,3.10
2019-03-10T04:10:41.350Z,8.15
2019-03-10T04:13:09.976Z,9.10
2019-03-10T04:15:38.560Z,9.40
2019-03-10T04:18:07.188Z,9.28
2019-03-10T04:20:36.032Z,12.40
2019-03-10T04:23:04.647Z,10.40
2019-03-10T04:25:33.148Z,11.68
2019-03-10T04:28:01.806Z,11.78
2019-03-10T04:30:30.341Z,12.80
2019-03-10T04:32:59.068Z,10.95
2019-03-10T04:35:27.580Z,10.17
2019-03-10T04:37:56.267Z,7.95
2019-03-10T04:40:24.868Z,9.33
2019-03-10T04:42:53.393Z,6.35
2019-03-10T04:45:21.947Z,10.32
2019-03-10T04:47:50.601Z,7.62
2019-03-10T04:50:19.127Z,9.38
2019-03-10T04:52:47.579Z,8.40
2019-03-10T04:55:17.813Z,7.22
2019-03-10T04:58:00.117Z,7.75
2019-03-10T05:00:29.603Z,7.90
2019-03-10T05:02:58.203Z,7.37
2019-03-10T05:05:26.736Z,6.28
2019-03-10T05:07:55.508Z,9.73
2019-03-10T05:10:25.182Z,12.57
2019-03-10T05:12:53.905Z,12.73
2019-03-10T05:15:22.445Z,13.13
2019-03-10T05:17:51.221Z,9.93
2019-03-10T05:20:19.806Z,7.17
2019-03-10T05:22:48.496Z,6.65
2019-03-10T05:25:22.423Z,7.05
2019-03-10T05:27:51.031Z,7.70
2019-03-10T05:30:19.680Z,9.63
2019-03-10T05:32:48.237Z,8.50
2019-03-10T05:35:16.745Z,9.95
2019-03-10T05:37:45.234Z,8.60
2019-03-10T05:40:13.827Z,10.93
2019-03-10T05:42:42.286Z,7.72
2019-03-10T05:45:10.923Z,10.95
2019-03-10T05:47:39.454Z,12.60
2019-03-10T05:50:08.068Z,8.23
2019-03-10T05:52:36.702Z,10.40
2019-03-10T05:55:06.175Z,10.55
2019-03-10T05:57:34.671Z,7.70
2019-03-10T06:00:03.743Z,8.08
2019-03-10T06:02:32.199Z,6.42
2019-03-10T06:05:00.651Z,6.05
2019-03-10T06:07:29.233Z,9.78
2019-03-10T06:09:57.906Z,12.53
2019-03-10T06:12:26.443Z,10.70
2019-03-10T06:14:55.029Z,8.40
2019-03-10T06:17:23.841Z,10.68
2019-03-10T06:19:52.303Z,12.25
2019-03-10T06:22:21.072Z,11.90
2019-03-10T06:24:49.601Z,9.80
2019-03-10T06:27:18.067Z,12.05
2019-03-10T06:29:46.908Z,11.48
2019-03-10T06:32:15.372Z,13.07
2019-03-10T06:34:43.827Z,12.05
2019-03-10T06:37:12.397Z,11.03
2019-03-10T06:39:40.915Z,9.93
2019-03-10T06:42:09.372Z,14.15
2019-03-10T06:44:37.858Z,11.33
2019-03-10T06:47:06.324Z,13.35
2019-03-10T06:49:34.788Z,11.53
2019-03-10T06:52:06.064Z,13.50
2019-03-10T06:54:34.687Z,12.35
2019-03-10T06:57:03.399Z,9.35
2019-03-10T06:59:32.019Z,13.17
2019-03-10T07:02:00.554Z,11.12
2019-03-10T07:04:29.119Z,12.23
2019-03-10T07:06:57.751Z,11.88
2019-03-10T07:09:26.202Z,12.00
2019-03-10T07:11:55.987Z,10.88
2019-03-10T07:14:24.483Z,11.68
2019-03-10T07:16:53.176Z,12.45
2019-03-10T07:19:21.727Z,8.25
2019-03-10T07:21:50.450Z,9.03
2019-03-10T07:24:20.581Z,7.17
2019-03-10T07:26:50.504Z,9.03
2019-03-10T07:29:23.342Z,9.88
2019-03-10T07:32:02.577Z,11.48
2019-03-10T07:34:32.848Z,7.80
2019-03-10T07:37:22.907Z,8.80
2019-03-10T07:40:04.780Z,8.35
2019-03-10T07:42:38.095Z,9.15
2019-03-10T07:45:19.309Z,9.65
2019-03-10T07:47:52.478Z,9.13
2019-03-10T07:50:41.729Z,10.38
2019-03-10T07:53:30.107Z,9.48
2019-03-10T07:56:03.050Z,10.28
2019-03-10T07:58:33.278Z,9.28
2019-03-10T08:01:06.027Z,9.93
2019-03-10T08:03:44.769Z,11.95
2019-03-10T08:06:17.511Z,11.13
2019-03-10T08:09:03.671Z,9.33
2019-03-10T08:11:33.914Z,10.68
2019-03-10T08:14:14.154Z,11.25
2019-03-10T08:17:00.652Z,9.50
2019-03-10T08:19:47.456Z,9.93
2019-03-10T08:22:29.598Z,11.50
2019-03-10T08:24:59.731Z,9.48
2019-03-10T08:27:29.971Z,11.05
2019-03-10T08:30:02.877Z,10.43
2019-03-10T08:32:35.964Z,11.83
2019-03-10T08:35:16.136Z,11.93
2019-03-10T08:38:01.228Z,9.48
2019-03-10T08:40:37.177Z,10.32
2019-03-10T08:43:22.525Z,9.18
2019-03-10T08:45:52.692Z,14.73
2019-03-10T08:48:22.913Z,12.00
2019-03-10T08:50:53.112Z,11.68
2019-03-10T08:53:23.554Z,12.85
2019-03-10T08:55:53.719Z,13.88
2019-03-10T08:58:38.782Z,14.30
2019-03-10T09:01:25.313Z,17.42
2019-03-10T09:03:58.281Z,17.42
2019-03-10T09:06:34.196Z,16.37
2019-03-10T09:09:04.407Z,13.22
2019-03-10T09:11:37.675Z,14.65
2019-03-10T09:14:10.799Z,14.20
2019-03-10T09:16:44.076Z,13.22
2019-03-10T09:19:14.307Z,9.73
2019-03-10T09:21:56.902Z,14.75
2019-03-10T09:24:33.024Z,15.80
2019-03-10T09:27:06.168Z,16.17
2019-03-10T09:29:45.479Z,14.33
2019-03-10T09:32:15.755Z,14.43
2019-03-10T09:34:54.641Z,14.38
2019-03-10T09:37:30.869Z,12.10
2019-03-10T09:40:01.029Z,13.85
2019-03-10T09:42:33.915Z,11.68
2019-03-10T09:45:06.655Z,14.28
2019-03-10T09:47:45.675Z,13.60
2019-03-10T09:50:15.951Z,11.35
2019-03-10T09:53:02.827Z,9.90
2019-03-10T09:55:33.183Z,14.43
2019-03-10T09:58:03.403Z,14.95
2019-03-10T10:00:33.513Z,13.25
2019-03-10T10:03:19.691Z,11.25
2019-03-10T10:05:52.547Z,16.75
2019-03-10T10:08:41.197Z,15.30
2019-03-10T10:11:11.375Z,10.93
2019-03-10T10:13:47.618Z,11.30
2019-03-10T10:16:26.415Z,12.18
2019-03-10T10:19:00.159Z,16.62
2019-03-10T10:21:32.951Z,11.75
2019-03-10T10:24:11.906Z,14.30
2019-03-10T10:26:42.128Z,11.75
2019-03-10T10:29:15.264Z,12.63
2019-03-10T10:31:48.424Z,17.35
2019-03-10T10:34:35.015Z,16.30
2019-03-10T10:37:05.219Z,16.20
2019-03-10T10:39:35.335Z,15.35
2019-03-10T10:42:23.599Z,12.45
2019-03-10T10:44:53.799Z,16.42
2019-03-10T10:47:40.476Z,18.35
2019-03-10T10:50:24.547Z,15.98
2019-03-10T10:52:54.890Z,17.35
2019-03-10T10:55:31.216Z,12.33
2019-03-10T10:58:01.360Z,16.02
2019-03-10T11:00:39.988Z,15.75
2019-03-10T11:03:12.208Z,15.72
2019-03-10T11:05:50.917Z,17.90
2019-03-10T11:08:21.136Z,14.53
2019-03-10T11:11:06.590Z,15.13
2019-03-10T11:13:53.027Z,12.25
2019-03-10T11:16:32.081Z,15.32
2019-03-10T11:19:02.297Z,13.90
2019-03-10T11:21:42.083Z,11.45
2019-03-10T11:24:15.276Z,15.40
2019-03-10T11:26:51.435Z,13.35
2019-03-10T11:29:21.595Z,17.15
2019-03-10T11:31:51.804Z,12.93
2019-03-10T11:34:33.625Z,15.20
2019-03-10T11:37:03.731Z,14.28
2019-03-10T11:39:39.740Z,17.25
2019-03-10T11:42:24.886Z,18.12
2019-03-10T11:45:04.010Z,15.70
2019-03-10T11:47:37.395Z,16.55
2019-03-10T11:50:19.241Z,18.98
2019-03-10T11:52:49.408Z,14.70
2019-03-10T11:55:36.115Z,12.98
2019-03-10T11:58:12.038Z,18.90
2019-03-10T12:00:42.307Z,17.98
2019-03-10T12:03:30.855Z,13.38
2019-03-10T12:06:20.588Z,19.23
2019-03-10T12:11:33.391Z,15.72
2019-03-10T12:14:01.924Z,20.68
2019-03-10T12:16:31.330Z,22.95
2019-03-10T12:18:59.953Z,16.65
2019-03-10T12:21:28.483Z,17.73
2019-03-10T12:23:57.680Z,18.52
2019-03-10T12:26:26.241Z,21.52
2019-03-10T12:28:54.703Z,14.60
2019-03-10T12:31:23.160Z,15.23
2019-03-10T12:33:51.656Z,18.25
2019-03-10T12:36:20.114Z,21.45
2019-03-10T12:38:48.647Z,19.87
2019-03-10T12:41:17.160Z,26.42
2019-03-10T12:43:45.687Z,25.05
2019-03-10T12:46:14.167Z,26.00
2019-03-10T12:48:42.739Z,25.27
2019-03-10T12:51:11.203Z,25.95
2019-03-10T12:53:39.675Z,25.92
2019-03-10T12:56:08.250Z,25.97
2019-03-10T12:58:36.767Z,22.65
2019-03-10T13:01:06.752Z,23.25
2019-03-10T13:03:35.685Z,26.33
2019-03-10T13:06:04.356Z,27.77
2019-03-10T13:08:32.886Z,22.05
2019-03-10T13:11:01.379Z,21.77
2019-03-10T13:13:29.909Z,26.00
2019-03-10T13:15:58.483Z,25.55
2019-03-10T13:18:26.971Z,25.08
2019-03-10T13:20:55.432Z,22.00
2019-03-10T13:23:23.898Z,23.55
2019-03-10T13:25:52.967Z,22.82
2019-03-10T13:28:21.435Z,20.25
2019-03-10T13:30:50.035Z,20.88
2019-03-10T13:33:18.554Z,23.80
2019-03-10T13:35:47.042Z,26.77
2019-03-10T13:38:15.568Z,28.15
2019-03-10T13:40:44.261Z,28.98
2019-03-10T13:43:12.785Z,29.53
2019-03-10T13:45:41.248Z,32.25
2019-03-10T13:48:09.758Z,33.53
2019-03-10T13:50:38.229Z,31.07
2019-03-10T13:53:06.767Z,32.17
2019-03-10T13:55:35.271Z,30.32
2019-03-10T13:58:03.731Z,30.80
2019-03-10T14:00:32.281Z,29.27
2019-03-10T14:03:01.000Z,28.40
2019-03-10T14:05:29.749Z,28.65
2019-03-10T14:07:58.198Z,32.87
2019-03-10T14:10:26.678Z,28.17
2019-03-10T14:12:55.206Z,32.53
2019-03-10T14:15:23.735Z,29.72
2019-03-10T14:17:52.235Z,34.78
2019-03-10T14:20:20.767Z,31.37
2019-03-10T14:22:49.223Z,37.88
2019-03-10T14:25:17.920Z,38.73
2019-03-10T14:27:46.958Z,36.53
2019-03-10T14:30:19.228Z,34.60
2019-03-10T14:32:47.858Z,43.98
2019-03-10T14:35:16.859Z,44.47
2019-03-10T14:37:45.472Z,32.25
2019-03-10T14:40:19.038Z,26.65
2019-03-10T14:42:47.710Z,27.45
2019-03-10T14:45:17.551Z,31.02
2019-03-10T14:50:16.658Z,26.55
2019-03-10T14:52:45.182Z,26.20
2019-03-10T14:55:18.591Z,24.95
2019-03-10T14:57:47.126Z,26.25
2019-03-10T15:00:21.516Z,25.05
2019-03-10T15:02:50.071Z,27.93
2019-03-10T15:05:18.778Z,25.05
2019-03-10T15:07:47.380Z,26.53
2019-03-10T15:10:16.014Z,28.07
2019-03-10T15:12:44.711Z,26.50
2019-03-10T15:15:22.467Z,34.48
2019-03-10T15:17:45.632Z,28.15
2019-03-10T15:20:15.504Z,34.00
2019-03-10T15:22:44.032Z,31.42
2019-03-10T15:25:14.339Z,33.58
2019-03-10T15:27:42.862Z,32.83
2019-03-10T15:30:17.371Z,30.72
2019-03-10T15:32:46.207Z,31.90
2019-03-10T15:35:14.988Z,30.40
2019-03-10T15:37:43.532Z,33.73
2019-03-10T15:40:16.863Z,33.60
2019-03-10T15:42:45.868Z,38.23
2019-03-10T15:45:15.737Z,33.98
2019-03-10T15:47:44.372Z,32.42
2019-03-10T15:50:30.335Z,38.98
2019-03-10T15:52:58.827Z,40.95
2019-03-10T15:55:27.429Z,40.65
2019-03-10T15:57:55.883Z,37.73
2019-03-10T16:00:28.274Z,39.27
2019-03-10T16:02:56.914Z,40.05
2019-03-10T16:05:25.578Z,41.48
2019-03-10T16:07:54.289Z,39.88
2019-03-10T16:10:22.961Z,43.08
2019-03-10T16:12:51.593Z,38.40
2019-03-10T16:15:21.890Z,37.80
2019-03-10T16:17:50.415Z,40.43
2019-03-10T16:20:19.012Z,39.18
2019-03-10T16:22:47.589Z,41.00
2019-03-10T16:25:17.289Z,35.00
2019-03-10T16:27:45.954Z,35.78
2019-03-10T16:30:22.339Z,26.45
2019-03-10T16:32:50.859Z,24.63
2019-03-10T16:35:21.172Z,23.83
2019-03-10T16:37:49.607Z,24.07
2019-03-10T16:40:20.179Z,24.20
2019-03-10T16:42:48.738Z,26.50
2019-03-10T16:45:22.228Z,28.75
2019-03-10T16:47:51.445Z,23.07
2019-03-10T16:50:24.282Z,23.10
2019-03-10T16:52:52.836Z,22.15
2019-03-10T16:55:21.732Z,21.52
2019-03-10T16:57:50.263Z,14.93
2019-03-10T17:00:20.856Z,19.10
2019-03-10T17:02:50.811Z,19.75
2019-03-10T17:05:21.435Z,19.27
2019-03-10T17:07:50.656Z,19.10
2019-03-10T17:10:24.259Z,19.35
2019-03-10T17:12:52.875Z,16.75
2019-03-10T17:15:23.666Z,17.98
2019-03-10T17:17:52.329Z,16.80
2019-03-10T17:20:20.937Z,15.23
2019-03-10T17:22:49.639Z,20.00
2019-03-10T17:25:18.296Z,16.65
2019-03-10T17:27:47.182Z,19.10
2019-03-10T17:30:21.660Z,17.05
2019-03-10T17:32:50.338Z,18.00
2019-03-10T17:35:20.313Z,18.07
2019-03-10T17:37:49.451Z,18.73
2019-03-10T17:40:23.597Z,22.77
2019-03-10T17:42:52.283Z,17.10
2019-03-10T17:45:23.054Z,18.57
2019-03-10T17:47:51.585Z,18.17
2019-03-10T17:50:20.413Z,19.10
2019-03-10T17:52:49.909Z,18.93
2019-03-10T17:55:22.279Z,21.48
2019-03-10T17:57:50.867Z,19.48
2019-03-10T18:00:23.095Z,21.00
2019-03-10T18:02:51.626Z,18.42
2019-03-10T18:05:20.223Z,21.35
2019-03-10T18:07:48.916Z,24.18
2019-03-10T18:10:18.287Z,20.75
2019-03-10T18:12:46.883Z,21.57
2019-03-10T18:15:18.920Z,26.33
2019-03-10T18:17:47.467Z,27.27
2019-03-10T18:20:17.267Z,28.57
2019-03-10T18:22:45.912Z,30.55
2019-03-10T18:25:14.888Z,28.93
2019-03-10T18:27:43.411Z,26.07
2019-03-10T18:30:21.828Z,23.47
2019-03-10T18:32:50.533Z,28.70
2019-03-10T18:35:19.228Z,24.15
2019-03-10T18:37:49.311Z,22.37
2019-03-10T18:40:22.901Z,22.93
2019-03-10T18:42:51.567Z,19.20
2019-03-10T18:45:20.773Z,20.02
2019-03-10T18:47:49.653Z,22.00
2019-03-10T18:50:19.452Z,18.73
2019-03-10T18:52:48.459Z,19.17
2019-03-10T18:55:17.947Z,23.00
2019-03-10T18:57:46.572Z,24.02
2019-03-10T19:00:25.584Z,24.25
2019-03-10T19:02:54.185Z,21.90
2019-03-10T19:05:23.506Z,25.95
2019-03-10T19:07:52.262Z,25.37
2019-03-10T19:10:23.573Z,21.57
2019-03-10T19:12:52.333Z,22.70
2019-03-10T19:15:22.353Z,18.67
2019-03-10T19:17:51.033Z,22.75
2019-03-10T19:20:38.952Z,21.40
2019-03-10T19:23:07.415Z,19.82
2019-03-10T19:25:36.020Z,17.20
2019-03-10T19:28:04.723Z,15.95
2019-03-10T19:30:33.555Z,15.80
2019-03-10T19:33:02.442Z,16.30
2019-03-10T19:35:31.211Z,15.45
2019-03-10T19:37:59.823Z,16.48
2019-03-10T19:40:29.292Z,15.72
2019-03-10T19:42:58.017Z,18.70
2019-03-10T19:45:26.636Z,17.12
2019-03-10T19:47:55.321Z,17.05
2019-03-10T19:50:27.336Z,14.80
2019-03-10T19:52:56.291Z,18.15
2019-03-10T19:55:24.922Z,19.77
2019-03-10T19:57:53.567Z,20.43
2019-03-10T20:00:22.678Z,21.20
2019-03-10T20:02:51.148Z,20.35
2019-03-10T20:05:19.872Z,19.37
2019-03-10T20:07:48.479Z,19.30
2019-03-10T20:10:18.203Z,17.10
2019-03-10T20:12:46.914Z,18.73
2019-03-10T20:15:17.121Z,22.13
2019-03-10T20:17:45.815Z,23.45
2019-03-10T20:20:16.139Z,21.20
2019-03-10T20:22:44.745Z,21.12
2019-03-10T20:25:15.087Z,18.57
2019-03-10T20:27:44.097Z,20.88
2019-03-10T20:30:23.286Z,19.40
2019-03-10T20:32:52.006Z,15.35
2019-03-10T20:35:39.891Z,19.02
2019-03-10T20:38:08.397Z,21.40
2019-03-10T20:40:36.955Z,11.22
2019-03-10T20:43:05.415Z,13.68
2019-03-10T20:45:34.044Z,12.85
2019-03-10T20:48:02.577Z,17.32
2019-03-10T20:50:31.026Z,16.27
2019-03-10T20:52:59.528Z,17.57
2019-03-10T20:55:28.051Z,19.60
2019-03-10T20:57:56.511Z,22.32
2019-03-10T21:00:26.665Z,22.40
2019-03-10T21:02:55.193Z,18.87
2019-03-10T21:05:23.722Z,20.62
2019-03-10T21:07:52.400Z,21.93
2019-03-10T21:10:27.068Z,33.40
2019-03-10T21:12:55.636Z,35.15
2019-03-10T21:15:26.351Z,30.62
2019-03-10T21:17:54.884Z,22.70
2019-03-10T21:20:24.431Z,20.88
2019-03-10T21:22:53.104Z,18.80
2019-03-10T21:25:49.187Z,20.85
2019-03-10T21:28:17.647Z,19.37
2019-03-10T21:30:46.109Z,23.38
2019-03-10T21:33:14.673Z,22.93
2019-03-10T21:35:43.195Z,20.50
2019-03-10T21:38:11.817Z,17.50
2019-03-10T21:40:40.382Z,19.37
2019-03-10T21:43:09.241Z,16.65
2019-03-10T21:45:37.763Z,16.73
2019-03-10T21:48:06.321Z,18.05
2019-03-10T21:50:34.851Z,20.80
2019-03-10T21:53:03.383Z,17.98
2019-03-10T21:55:31.876Z,17.95
2019-03-10T21:58:00.327Z,15.32
2019-03-10T22:00:28.784Z,13.60
2019-03-10T22:02:57.269Z,11.43
2019-03-10T22:05:25.728Z,10.13
2019-03-10T22:07:54.258Z,10.00
2019-03-10T22:10:27.515Z,13.28
2019-03-10T22:12:52.914Z,8.78
2019-03-10T22:15:22.012Z,10.32
2019-03-10T22:17:50.615Z,11.25
2019-03-10T22:20:19.910Z,9.20
2019-03-10T22:22:49.774Z,8.83
2019-03-10T22:25:18.729Z,7.25
2019-03-10T22:27:47.335Z,7.65
2019-03-10T22:30:18.973Z,10.25
2019-03-10T22:32:47.602Z,10.50
2019-03-10T22:35:16.135Z,8.10
2019-03-10T22:37:44.587Z,6.10
2019-03-10T22:40:15.171Z,5.00
2019-03-10T22:42:43.836Z,6.30
2019-03-10T22:45:19.888Z,7.40
2019-03-10T22:47:48.528Z,6.22
2019-03-10T22:50:17.633Z,5.87
2019-03-10T22:52:46.711Z,6.67
2019-03-10T22:55:15.812Z,7.12
2019-03-10T22:57:44.337Z,9.95
2019-03-10T23:00:25.472Z,6.85
2019-03-10T23:02:54.058Z,6.28
2019-03-10T23:05:22.587Z,5.22
2019-03-10T23:07:51.081Z,6.37
2019-03-10T23:10:19.536Z,7.62
2019-03-10T23:12:48.136Z,5.10
2019-03-10T23:15:16.683Z,4.30
2019-03-10T23:17:45.203Z,5.78
2019-03-10T23:20:15.346Z,5.92
2019-03-10T23:22:44.042Z,6.70
2019-03-10T23:25:12.804Z,6.28
2019-03-10T23:27:41.464Z,6.28
2019-03-10T23:30:14.880Z,5.95
2019-03-10T23:32:43.399Z,6.95
2019-03-10T23:35:11.918Z,6.97
2019-03-10T23:37:40.482Z,7.95
2019-03-10T23:40:14.055Z,5.45
2019-03-10T23:42:42.636Z,5.72
2019-03-10T23:45:16.069Z,6.67
2019-03-10T23:47:44.754Z,4.92
2019-03-10T23:50:15.153Z,6.35
2019-03-10T23:52:43.802Z,7.25
2019-03-10T23:55:13.499Z,6.85
